Time;durP1;ratioP1;P1;durP2;ratioP2;P2;SDS_P1;SDS_P2;PMS_P1;PMS_P2;Temp;Humidity;BMP_temperature;BMP_pressure;BME280_temperature;BME280_humidity;BME280_pressure;Samples;Min_cycle;Max_cycle;Signal;HPM_P1;HPM_P2
2022/10/31 00:01:56;;;;;;;0.75;0.30;;;;;;;1.70;55.63;98126.69;5032819;28;20037;-55
2022/10/31 00:04:21;;;;;;;0.70;0.30;;;;;;;1.68;55.76;98118.00;5032942;28;20318;-51
2022/10/31 00:06:47;;;;;;;1.33;0.50;;;;;;;1.65;55.44;98102.41;5032503;28;20433;-49
2022/10/31 00:09:12;;;;;;;2.30;0.52;;;;;;;1.72;55.29;98106.31;5032179;28;20030;-51
2022/10/31 00:11:38;;;;;;;3.40;0.40;;;;;;;1.72;55.40;98103.69;5042862;28;20071;-52
2022/10/31 00:14:03;;;;;;;1.60;0.40;;;;;;;1.73;55.29;98092.16;5045239;28;20033;-51
2022/10/31 00:16:30;;;;;;;1.60;0.45;;;;;;;1.77;54.57;98101.53;5031901;28;20026;-50
2022/10/31 00:19:01;;;;;;;2.95;0.35;;;;;;;1.83;54.67;98103.72;5032331;28;20037;-54
2022/10/31 00:21:29;;;;;;;2.40;0.43;;;;;;;1.88;54.74;98102.53;5032311;28;20345;-53
2022/10/31 00:23:54;;;;;;;2.10;0.40;;;;;;;1.83;54.65;98087.06;5032538;28;20041;-53
2022/10/31 00:26:20;;;;;;;1.83;0.45;;;;;;;1.87;54.36;98091.16;5031938;28;20108;-51
2022/10/31 00:28:46;;;;;;;3.33;0.40;;;;;;;1.68;54.34;98062.59;5046482;28;20950;-48
2022/10/31 00:31:13;;;;;;;0.40;0.20;;;;;;;1.83;54.54;98084.44;5052043;28;20033;-52
2022/10/31 00:33:40;;;;;;;1.63;0.20;;;;;;;1.75;53.81;98092.03;5046071;28;20029;-50
2022/10/31 00:36:07;;;;;;;1.67;0.20;;;;;;;1.78;53.96;98087.41;5032355;28;20029;-48
2022/10/31 00:38:32;;;;;;;2.28;0.50;;;;;;;1.69;54.29;98072.25;5031940;28;20448;-52
2022/10/31 00:40:58;;;;;;;1.42;0.40;;;;;;;1.66;54.20;98083.00;5048715;28;20033;-52
2022/10/31 00:43:24;;;;;;;1.15;0.32;;;;;;;1.73;54.15;98076.34;5032443;28;20124;-52
2022/10/31 00:45:49;;;;;;;1.02;0.55;;;;;;;1.70;54.34;98076.56;5048334;28;20037;-52
2022/10/31 00:48:15;;;;;;;2.08;0.38;;;;;;;1.73;54.28;98078.97;5052063;28;20044;-53
2022/10/31 00:50:40;;;;;;;0.40;0.22;;;;;;;1.84;54.53;98080.84;5052224;28;20033;-52
2022/10/31 00:53:06;;;;;;;1.48;0.20;;;;;;;1.94;53.11;98091.56;5048018;28;20053;-52
2022/10/31 00:55:33;;;;;;;1.60;0.40;;;;;;;1.84;53.71;98075.56;5031704;28;20091;-65
2022/10/31 00:57:59;;;;;;;1.08;0.30;;;;;;;1.84;54.01;98079.03;5041279;28;20037;-53
2022/10/31 01:00:25;;;;;;;2.78;0.32;;;;;;;1.76;53.88;98072.63;5052131;28;20037;-53
2022/10/31 01:02:50;;;;;;;1.65;0.30;;;;;;;1.86;54.01;98084.19;5034564;28;20514;-54
2022/10/31 01:05:16;;;;;;;1.38;0.30;;;;;;;1.64;53.99;98050.59;5031786;28;20065;-54
2022/10/31 01:07:42;;;;;;;1.27;0.30;;;;;;;1.84;53.61;98080.84;5034011;28;20377;-50
2022/10/31 01:10:09;;;;;;;1.73;0.30;;;;;;;1.91;53.79;98081.22;5043818;28;20048;-55
2022/10/31 01:12:39;;;;;;;2.10;0.30;;;;;;;1.93;53.86;98074.88;5055151;28;20098;-51
2022/10/31 01:15:06;;;;;;;0.73;0.40;;;;;;;1.93;53.75;98080.16;5054150;28;20422;-52
2022/10/31 01:17:32;;;;;;;1.30;0.30;;;;;;;1.92;53.54;98082.88;5053840;28;20117;-56
2022/10/31 01:19:57;;;;;;;1.63;0.30;;;;;;;1.94;53.76;98083.66;5054222;28;20633;-53
2022/10/31 01:22:23;;;;;;;0.63;0.43;;;;;;;1.94;54.10;98081.00;5054701;28;20041;-58
2022/10/31 01:24:48;;;;;;;3.75;0.60;;;;;;;1.94;54.10;98075.72;5052065;28;20086;-55
2022/10/31 01:27:13;;;;;;;2.05;0.40;;;;;;;1.94;54.45;98065.19;5055632;28;20343;-54
2022/10/31 01:29:39;;;;;;;0.70;0.30;;;;;;;2.04;54.60;98075.88;5054975;28;20355;-49
2022/10/31 01:32:04;;;;;;;0.57;0.30;;;;;;;1.99;55.13;98078.88;5054287;28;20064;-56
2022/10/31 01:34:30;;;;;;;1.98;0.50;;;;;;;1.99;55.49;98095.53;5053414;28;20119;-61
2022/10/31 01:36:55;;;;;;;0.47;0.30;;;;;;;1.72;56.59;98050.91;5055289;28;20028;-50
2022/10/31 01:39:21;;;;;;;1.25;0.45;;;;;;;1.93;56.91;98095.13;5053221;28;20043;-53
2022/10/31 01:41:49;;;;;;;1.83;0.30;;;;;;;1.88;57.32;98087.56;5054719;28;20036;-54
2022/10/31 01:44:15;;;;;;;0.77;0.40;;;;;;;1.90;57.67;98088.31;5054832;28;20067;-52
2022/10/31 01:46:44;;;;;;;1.30;0.40;;;;;;;1.85;58.03;98085.16;5054825;28;20044;-54
2022/10/31 01:49:42;;;;;;;0.93;0.30;;;;;;;1.88;58.17;98081.44;5054926;28;20128;-53
2022/10/31 01:52:29;;;;;;;0.52;0.20;;;;;;;1.79;58.93;98089.06;5037603;28;20053;-51
2022/10/31 01:55:32;;;;;;;1.63;0.40;;;;;;;1.66;59.62;98088.25;5040467;28;20037;-53
2022/10/31 01:58:04;;;;;;;0.80;0.30;;;;;;;1.69;59.49;98102.09;5049075;28;20434;-52
2022/10/31 02:00:30;;;;;;;1.05;0.28;;;;;;;1.57;60.65;98111.72;5034722;28;20029;-53
2022/10/31 02:02:55;;;;;;;1.25;0.40;;;;;;;1.51;61.31;98112.16;5034586;28;20351;-52
2022/10/31 02:05:27;;;;;;;0.85;0.20;;;;;;;1.49;61.23;98108.81;5033823;28;20032;-51
2022/10/31 02:08:13;;;;;;;1.50;0.30;;;;;;;1.50;61.96;98109.63;5034577;28;20514;-55
2022/10/31 02:10:40;;;;;;;0.73;0.40;;;;;;;1.37;62.21;98101.75;5034222;28;20530;-53
2022/10/31 02:13:07;;;;;;;1.17;0.30;;;;;;;1.36;62.70;98118.50;5034595;28;20041;-53
2022/10/31 02:15:35;;;;;;;3.13;0.38;;;;;;;1.36;63.12;98113.25;5034305;28;20030;-60
2022/10/31 02:18:01;;;;;;;0.60;0.35;;;;;;;1.36;63.54;98116.72;5037362;28;20375;-48
2022/10/31 02:20:37;;;;;;;4.40;0.45;;;;;;;1.40;63.74;98110.28;5069072;28;20032;-50
2022/10/31 02:23:28;;;;;;;0.30;0.20;;;;;;;1.46;63.75;98108.16;5034747;28;20044;-59
2022/10/31 02:26:17;;;;;;;1.58;0.50;;;;;;;1.52;63.13;98105.94;5034274;28;20535;-54
2022/10/31 02:29:07;;;;;;;1.15;0.40;;;;;;;1.45;63.97;98099.41;5033864;28;20432;-52
2022/10/31 02:31:54;;;;;;;1.80;0.40;;;;;;;1.41;64.21;98105.84;5034289;28;20111;-51
2022/10/31 02:34:26;;;;;;;3.63;0.60;;;;;;;1.29;64.97;98102.28;5033847;28;20038;-54
2022/10/31 02:37:01;;;;;;;1.13;0.38;;;;;;;1.31;65.45;98099.53;5033859;28;20033;-51
2022/10/31 02:39:37;;;;;;;4.18;0.50;;;;;;;1.35;65.34;98106.28;5051589;28;20040;-49
2022/10/31 02:42:31;;;;;;;1.70;0.70;;;;;;;1.40;64.70;98109.44;5054125;28;20364;-55
2022/10/31 02:45:28;;;;;;;0.47;0.30;;;;;;;1.31;65.22;98110.09;5052127;28;20041;-55
2022/10/31 02:47:58;;;;;;;0.75;0.30;;;;;;;1.09;66.83;98108.94;5045827;28;20207;-56
2022/10/31 02:50:30;;;;;;;2.25;0.45;;;;;;;1.07;67.25;98108.22;5053399;28;20044;-52
2022/10/31 02:52:56;;;;;;;1.45;0.60;;;;;;;1.00;67.62;98098.09;5053344;28;20064;-57
2022/10/31 02:55:24;;;;;;;1.02;0.50;;;;;;;1.07;67.20;98106.41;5034797;28;20100;-52
2022/10/31 02:57:59;;;;;;;0.90;0.50;;;;;;;1.08;67.37;98104.63;5040116;28;20037;-55
2022/10/31 03:00:24;;;;;;;2.83;0.40;;;;;;;1.16;66.53;98112.84;5053152;28;20040;-49
2022/10/31 03:02:59;;;;;;;1.27;0.50;;;;;;;1.16;66.50;98117.28;5053464;28;20021;-53
2022/10/31 03:05:33;;;;;;;1.70;0.70;;;;;;;1.09;67.42;98111.59;5053390;28;20402;-48
2022/10/31 03:08:19;;;;;;;1.58;0.50;;;;;;;1.05;67.59;98102.22;5052105;28;20025;-49
2022/10/31 03:10:48;;;;;;;0.88;0.50;;;;;;;1.03;67.41;98106.75;5036557;28;20108;-54
2022/10/31 03:13:39;;;;;;;0.80;0.50;;;;;;;1.10;67.40;98118.53;5052972;28;20417;-53
2022/10/31 03:16:22;;;;;;;0.95;0.50;;;;;;;1.09;67.41;98122.13;5053226;28;20029;-54
2022/10/31 03:19:10;;;;;;;1.13;0.50;;;;;;;1.08;67.48;98116.00;5034923;28;20129;-52
2022/10/31 03:21:59;;;;;;;2.65;0.60;;;;;;;1.11;66.16;98114.94;5041783;28;20037;-53
2022/10/31 03:24:31;;;;;;;3.08;1.48;;;;;;;0.92;67.46;98121.47;5053115;28;20470;-53
2022/10/31 03:26:59;;;;;;;3.65;0.77;;;;;;;0.90;67.77;98110.22;5051854;28;20029;-51
2022/10/31 03:29:28;;;;;;;1.88;1.13;;;;;;;0.85;67.67;98110.53;5052971;28;20033;-52
2022/10/31 03:31:58;;;;;;;3.47;1.58;;;;;;;0.73;68.29;98097.38;5053015;28;20427;-56
2022/10/31 03:34:23;;;;;;;0.93;0.63;;;;;;;0.91;67.50;98103.16;5034599;28;20539;-55
2022/10/31 03:36:54;;;;;;;3.17;0.90;;;;;;;1.02;67.47;98108.53;5041042;28;20111;-50
2022/10/31 03:39:22;;;;;;;2.67;0.70;;;;;;;1.10;67.07;98111.50;5052553;28;20032;-53
2022/10/31 03:41:56;;;;;;;1.75;0.65;;;;;;;1.10;67.58;98105.34;5052671;28;20031;-51
2022/10/31 03:44:24;;;;;;;1.50;0.57;;;;;;;1.09;67.19;98111.59;5052386;28;20040;-55
2022/10/31 03:46:50;;;;;;;3.05;0.70;;;;;;;1.07;67.53;98119.59;5052548;28;20051;-55
2022/10/31 03:49:16;;;;;;;1.77;0.70;;;;;;;1.05;68.03;98112.75;5039731;28;20099;-51
2022/10/31 03:51:56;;;;;;;1.95;0.60;;;;;;;1.12;67.81;98116.63;5032629;28;20037;-51
2022/10/31 03:54:33;;;;;;;3.45;1.00;;;;;;;1.12;68.13;98121.91;5032783;28;20036;-55
2022/10/31 03:57:29;;;;;;;3.13;0.70;;;;;;;1.18;67.32;98115.38;5059797;28;20041;-54
2022/10/31 04:00:01;;;;;;;7.40;0.95;;;;;;;1.21;67.24;98121.28;5052426;28;20037;-53
2022/10/31 04:02:32;;;;;;;1.98;0.65;;;;;;;1.18;67.45;98120.66;5052323;28;20048;-55
2022/10/31 04:04:59;;;;;;;2.25;0.60;;;;;;;1.18;67.61;98112.75;5052342;28;20079;-51
2022/10/31 04:07:28;;;;;;;4.90;0.90;;;;;;;1.20;67.15;98127.47;5052124;28;20091;-52
2022/10/31 04:09:55;;;;;;;3.72;0.98;;;;;;;1.10;67.49;98129.09;5052146;28;20025;-53
2022/10/31 04:12:23;;;;;;;2.03;0.60;;;;;;;1.05;67.38;98121.47;5035284;28;20070;-50
2022/10/31 04:14:52;;;;;;;2.63;0.95;;;;;;;1.08;67.60;98126.53;5032140;28;20102;-54
2022/10/31 04:17:22;;;;;;;1.40;0.75;;;;;;;0.96;67.30;98101.03;5049156;28;20459;-55
2022/10/31 04:19:47;;;;;;;1.85;0.80;;;;;;;1.12;67.63;98140.38;5048281;28;20091;-55
2022/10/31 04:22:13;;;;;;;3.78;0.70;;;;;;;1.06;67.73;98124.97;5031953;28;20033;-50
2022/10/31 04:24:40;;;;;;;1.98;0.80;;;;;;;1.13;67.39;98144.69;5032315;28;20068;-50
2022/10/31 04:27:05;;;;;;;1.35;0.60;;;;;;;1.09;68.09;98144.06;5041806;28;20033;-54
2022/10/31 04:29:30;;;;;;;2.60;0.70;;;;;;;1.14;67.59;98154.28;5031928;28;20467;-54
2022/10/31 04:31:56;;;;;;;1.92;0.90;;;;;;;1.06;68.63;98152.16;5032015;28;20026;-55
2022/10/31 04:34:21;;;;;;;3.90;0.70;;;;;;;1.04;68.48;98151.44;5032257;28;20532;-53
2022/10/31 04:36:47;;;;;;;2.97;0.73;;;;;;;1.14;67.64;98156.91;5047250;28;20033;-52
2022/10/31 04:39:12;;;;;;;2.50;0.90;;;;;;;1.13;67.67;98171.91;5051618;28;20025;-52
2022/10/31 04:41:38;;;;;;;5.47;1.02;;;;;;;1.12;68.21;98169.34;5052109;28;20368;-60
2022/10/31 04:44:03;;;;;;;1.90;0.60;;;;;;;1.16;68.46;98175.28;5039321;28;20052;-51
2022/10/31 04:46:29;;;;;;;1.50;0.80;;;;;;;1.18;68.22;98168.09;5035908;28;20033;-52
2022/10/31 04:48:54;;;;;;;3.45;0.60;;;;;;;1.25;67.56;98174.63;5035830;28;20044;-53
2022/10/31 04:51:20;;;;;;;3.08;0.82;;;;;;;1.21;67.48;98166.09;5035895;28;20040;-55
2022/10/31 04:53:45;;;;;;;0.93;0.80;;;;;;;1.18;68.11;98168.94;5035978;28;20372;-51
2022/10/31 04:56:10;;;;;;;2.70;0.70;;;;;;;1.27;67.16;98172.72;5043965;28;20054;-57
2022/10/31 04:58:36;;;;;;;1.70;0.73;;;;;;;1.17;67.98;98167.25;5039871;28;20432;-51
2022/10/31 05:01:01;;;;;;;2.88;1.00;;;;;;;1.16;67.81;98170.81;5048103;28;20038;-53
2022/10/31 05:03:27;;;;;;;2.90;0.70;;;;;;;1.29;67.42;98187.50;5035578;28;20342;-53
2022/10/31 05:05:52;;;;;;;3.10;0.98;;;;;;;1.35;67.10;98190.66;5034684;28;20032;-50
2022/10/31 05:08:17;;;;;;;2.30;1.00;;;;;;;1.24;67.58;98181.72;5035762;28;20057;-52
2022/10/31 05:10:43;;;;;;;3.22;0.85;;;;;;;1.31;67.85;98189.19;5035156;28;20037;-58
2022/10/31 05:13:09;;;;;;;3.03;0.65;;;;;;;1.34;67.47;98205.66;5045532;28;20037;-52
2022/10/31 05:15:34;;;;;;;3.50;0.90;;;;;;;1.36;67.55;98203.75;5053869;28;20040;-52
2022/10/31 05:18:00;;;;;;;3.28;1.00;;;;;;;1.40;67.92;98207.88;5039286;28;20029;-54
2022/10/31 05:20:28;;;;;;;2.13;0.85;;;;;;;1.46;67.16;98218.94;5055080;28;20029;-55
2022/10/31 05:22:55;;;;;;;2.88;0.80;;;;;;;1.53;67.11;98210.50;5054678;28;20036;-64
2022/10/31 05:25:23;;;;;;;1.13;0.60;;;;;;;1.61;66.54;98217.88;5054763;28;20160;-50
2022/10/31 05:27:50;;;;;;;1.67;0.50;;;;;;;1.63;66.81;98228.31;5054836;28;20061;-57
2022/10/31 05:30:20;;;;;;;2.05;0.63;;;;;;;1.62;66.73;98216.06;5053766;28;20041;-50
2022/10/31 05:32:47;;;;;;;2.13;0.70;;;;;;;1.59;66.46;98235.59;5045297;28;20360;-49
2022/10/31 05:35:27;;;;;;;0.80;0.43;;;;;;;1.62;66.69;98245.09;5035471;28;20025;-48
2022/10/31 05:37:52;;;;;;;5.03;0.80;;;;;;;1.63;66.92;98244.13;5035246;28;20091;-52
2022/10/31 05:40:20;;;;;;;1.73;0.52;;;;;;;1.70;66.19;98246.25;5034912;28;20030;-54
2022/10/31 05:42:46;;;;;;;2.70;0.80;;;;;;;1.80;66.44;98250.88;5040837;28;20491;-58
2022/10/31 05:45:15;;;;;;;2.45;0.63;;;;;;;1.81;66.00;98260.47;5055108;28;20033;-54
2022/10/31 05:47:40;;;;;;;1.13;0.50;;;;;;;1.72;65.72;98265.44;5055307;28;20170;-56
2022/10/31 05:50:07;;;;;;;3.42;0.50;;;;;;;1.80;66.06;98262.28;5054131;28;20071;-52
2022/10/31 05:52:33;;;;;;;1.40;0.70;;;;;;;1.85;66.18;98267.25;5049120;28;20367;-55
2022/10/31 05:54:58;;;;;;;1.45;0.60;;;;;;;1.96;65.81;98272.59;5033581;28;20081;-53
2022/10/31 05:57:24;;;;;;;1.85;0.60;;;;;;;1.88;66.24;98288.16;5034640;28;20422;-55
2022/10/31 05:59:52;;;;;;;2.83;0.80;;;;;;;1.88;66.58;98287.28;5034607;28;20333;-51
2022/10/31 06:02:21;;;;;;;2.17;1.00;;;;;;;1.97;66.87;98291.94;5036539;28;20089;-55
2022/10/31 06:04:46;;;;;;;1.13;0.68;;;;;;;2.03;66.48;98295.94;5054280;28;20098;-66
2022/10/31 06:07:12;;;;;;;2.40;0.60;;;;;;;2.08;66.45;98310.50;5054403;28;20037;-50
2022/10/31 06:09:37;;;;;;;0.95;0.60;;;;;;;2.06;66.38;98309.78;5053460;28;20025;-51
2022/10/31 06:12:03;;;;;;;1.77;0.80;;;;;;;2.12;66.51;98319.06;5034216;28;20040;-49
2022/10/31 06:14:28;;;;;;;2.53;0.90;;;;;;;2.18;65.90;98329.19;5035836;28;20034;-56
2022/10/31 06:16:55;;;;;;;1.83;1.10;;;;;;;2.22;65.81;98319.25;5054380;28;20029;-52
2022/10/31 06:19:20;;;;;;;2.42;1.13;;;;;;;2.28;65.99;98324.09;5053999;28;20041;-53
2022/10/31 06:21:46;;;;;;;3.28;1.27;;;;;;;2.35;66.55;98330.63;5054350;28;20025;-55
2022/10/31 06:24:11;;;;;;;3.45;1.55;;;;;;;2.45;65.87;98338.75;5052530;28;20359;-54
2022/10/31 06:26:36;;;;;;;3.25;1.83;;;;;;;2.54;65.84;98338.13;5053871;28;20379;-57
2022/10/31 06:29:02;;;;;;;5.68;1.50;;;;;;;2.56;65.50;98345.91;5047238;28;20432;-55
2022/10/31 06:31:27;;;;;;;2.42;1.35;;;;;;;2.65;65.24;98358.47;5033873;28;20440;-53
2022/10/31 06:33:53;;;;;;;2.75;1.50;;;;;;;2.67;65.83;98363.63;5033824;28;20076;-55
2022/10/31 06:36:18;;;;;;;2.53;1.60;;;;;;;2.70;65.18;98364.28;5034093;28;20032;-58
2022/10/31 06:38:44;;;;;;;2.75;1.27;;;;;;;2.68;64.93;98375.91;5039396;28;20029;-52
2022/10/31 06:41:09;;;;;;;1.73;0.75;;;;;;;2.68;65.49;98387.34;5053551;28;20033;-56
2022/10/31 06:43:35;;;;;;;2.80;1.30;;;;;;;2.68;65.25;98392.63;5053604;28;20057;-52
2022/10/31 06:46:04;;;;;;;2.03;1.33;;;;;;;2.76;65.69;98388.56;5038246;28;20160;-56
2022/10/31 06:48:30;;;;;;;2.90;1.30;;;;;;;2.86;65.95;98394.88;5034666;28;20087;-52
2022/10/31 06:50:59;;;;;;;2.53;1.20;;;;;;;2.95;65.33;98399.53;5045337;28;20037;-50
2022/10/31 06:53:26;;;;;;;2.05;1.20;;;;;;;3.10;65.18;98407.28;5053768;28;20090;-52
2022/10/31 06:55:51;;;;;;;1.70;1.40;;;;;;;3.25;65.02;98406.16;5053406;28;20029;-57
2022/10/31 06:58:17;;;;;;;1.65;1.00;;;;;;;3.43;64.49;98424.31;5053363;28;20025;-56
2022/10/31 07:00:42;;;;;;;2.28;1.10;;;;;;;3.61;63.80;98416.78;5050268;28;20337;-53
2022/10/31 07:03:12;;;;;;;4.32;1.00;;;;;;;3.68;63.52;98396.84;5060905;28;20559;-61
2022/10/31 07:05:38;;;;;;;3.70;1.02;;;;;;;3.96;62.68;98428.34;5050948;28;20036;-55
2022/10/31 07:08:08;;;;;;;3.55;1.15;;;;;;;4.08;62.83;98430.03;5054271;28;20037;-52
2022/10/31 07:10:35;;;;;;;1.88;1.20;;;;;;;4.12;61.97;98449.19;5066952;28;20058;-54
2022/10/31 07:13:03;;;;;;;3.28;1.40;;;;;;;3.97;62.74;98453.84;5052796;28;20040;-51
2022/10/31 07:15:32;;;;;;;2.72;0.95;;;;;;;3.76;63.53;98462.44;5052994;28;20116;-53
2022/10/31 07:18:05;;;;;;;3.65;1.15;;;;;;;3.71;63.98;98480.47;5050329;28;20335;-54
2022/10/31 07:20:31;;;;;;;4.90;1.83;;;;;;;3.73;63.55;98484.69;5051931;28;20506;-51
2022/10/31 07:22:57;;;;;;;12.52;2.13;;;;;;;3.74;63.12;98474.94;5069731;28;20107;-56
2022/10/31 07:25:23;;;;;;;6.25;1.48;;;;;;;3.71;63.04;98485.78;5053587;28;20128;-51
2022/10/31 07:27:49;;;;;;;3.15;1.25;;;;;;;3.64;63.26;98495.13;5037393;28;20044;-52
2022/10/31 07:30:18;;;;;;;3.13;1.60;;;;;;;3.66;63.98;98499.34;5052668;28;20025;-55
2022/10/31 07:32:47;;;;;;;7.88;1.55;;;;;;;3.74;63.10;98506.72;5045017;28;20028;-55
2022/10/31 07:35:15;;;;;;;3.40;1.50;;;;;;;3.80;63.25;98522.16;5049206;28;20031;-68
2022/10/31 07:37:41;;;;;;;4.22;1.38;;;;;;;3.87;63.46;98527.84;5046492;28;20035;-54
2022/10/31 07:40:08;;;;;;;3.00;1.48;;;;;;;3.94;63.23;98534.38;5047246;28;20124;-57
2022/10/31 07:42:42;;;;;;;6.55;1.45;;;;;;;3.79;64.10;98548.75;5051714;28;20045;-55
2022/10/31 07:45:10;;;;;;;4.78;1.40;;;;;;;3.66;65.28;98551.44;5048461;28;20400;-60
2022/10/31 07:47:39;;;;;;;4.43;1.70;;;;;;;3.63;65.69;98555.16;5049667;28;20037;-55
2022/10/31 07:50:05;;;;;;;3.72;1.80;;;;;;;3.59;65.47;98562.47;5050320;28;20053;-55
2022/10/31 07:52:31;;;;;;;2.95;1.35;;;;;;;3.53;64.90;98573.50;5049353;28;20036;-55
2022/10/31 07:54:56;;;;;;;3.30;1.25;;;;;;;3.52;64.90;98574.44;5050162;28;20024;-51
2022/10/31 07:57:22;;;;;;;6.15;2.00;;;;;;;3.51;65.81;98586.00;5049502;28;20428;-56
2022/10/31 07:59:47;;;;;;;4.53;1.73;;;;;;;3.59;64.58;98573.03;5044601;28;20025;-55
2022/10/31 08:02:12;;;;;;;4.97;1.90;;;;;;;3.63;64.79;98576.31;5048430;28;20021;-56
2022/10/31 08:04:38;;;;;;;3.20;1.35;;;;;;;3.64;64.65;98585.13;5046409;28;20103;-61
2022/10/31 08:07:03;;;;;;;1.40;1.10;;;;;;;3.70;64.25;98577.56;5050587;28;20081;-53
2022/10/31 08:09:29;;;;;;;2.22;1.08;;;;;;;3.85;63.75;98588.00;5050147;28;20100;-55
2022/10/31 08:11:54;;;;;;;2.10;1.15;;;;;;;4.03;63.62;98596.41;5049099;28;20493;-56
2022/10/31 08:14:19;;;;;;;4.15;1.73;;;;;;;4.28;62.44;98602.53;5050557;28;20052;-61
2022/10/31 08:16:45;;;;;;;9.20;1.33;;;;;;;4.54;61.24;98595.28;5048979;28;20041;-54
2022/10/31 08:19:10;;;;;;;4.13;1.35;;;;;;;4.63;60.88;98603.50;5051643;28;20056;-58
2022/10/31 08:21:36;;;;;;;1.90;1.20;;;;;;;4.70;60.40;98607.38;5050874;28;20534;-57
2022/10/31 08:24:01;;;;;;;2.50;1.20;;;;;;;4.76;59.93;98606.06;5071760;28;20040;-57
2022/10/31 08:26:27;;;;;;;1.55;0.90;;;;;;;4.84;58.97;98614.31;5067110;28;20119;-57
2022/10/31 08:28:54;;;;;;;3.80;1.30;;;;;;;5.07;59.02;98625.78;5050231;28;20033;-58
2022/10/31 08:31:20;;;;;;;2.55;1.58;;;;;;;5.17;58.49;98629.41;5043340;28;20028;-62
2022/10/31 08:33:45;;;;;;;2.13;1.30;;;;;;;5.26;58.01;98635.81;5031203;28;20049;-54
2022/10/31 08:36:11;;;;;;;2.90;1.70;;;;;;;5.42;58.51;98637.28;5033091;28;20037;-57
2022/10/31 08:38:36;;;;;;;2.72;1.20;;;;;;;5.53;57.95;98634.59;5051663;28;20108;-54
2022/10/31 08:41:01;;;;;;;2.22;1.45;;;;;;;5.64;57.64;98641.72;5047309;28;20408;-56
2022/10/31 08:43:27;;;;;;;2.30;1.23;;;;;;;5.70;56.46;98651.03;5046921;28;20099;-56
2022/10/31 08:45:54;;;;;;;3.80;1.38;;;;;;;5.64;56.36;98660.31;5049458;28;20451;-59
2022/10/31 08:48:20;;;;;;;2.13;1.02;;;;;;;5.35;56.49;98641.38;5049494;28;20036;-64
2022/10/31 08:50:46;;;;;;;2.15;1.65;;;;;;;5.36;56.25;98669.63;5049812;28;20423;-58
2022/10/31 08:53:15;;;;;;;2.80;1.50;;;;;;;5.27;56.91;98677.31;5049347;28;20033;-59
2022/10/31 08:55:42;;;;;;;3.45;1.45;;;;;;;5.21;56.39;98675.13;5049961;28;20021;-58
2022/10/31 08:58:11;;;;;;;4.32;1.67;;;;;;;5.15;55.37;98665.00;5049923;28;20399;-60
2022/10/31 09:00:36;;;;;;;7.55;2.30;;;;;;;5.09;56.09;98678.75;5049360;28;20033;-56
2022/10/31 09:03:06;;;;;;;3.20;1.70;;;;;;;5.08;55.99;98682.34;5048842;28;20017;-53
2022/10/31 09:05:32;;;;;;;3.63;1.80;;;;;;;5.02;55.80;98696.94;5049802;28;20033;-57
2022/10/31 09:07:59;;;;;;;2.80;1.55;;;;;;;4.98;55.61;98691.00;5048465;28;20032;-56
2022/10/31 09:10:26;;;;;;;3.22;1.80;;;;;;;5.01;56.40;98698.72;5048308;28;20025;-61
2022/10/31 09:12:59;;;;;;;3.03;1.63;;;;;;;4.81;55.39;98686.09;5047872;28;20456;-56
2022/10/31 09:15:26;;;;;;;2.53;1.20;;;;;;;4.98;54.85;98712.22;5050269;28;20032;-56
2022/10/31 09:17:51;;;;;;;2.63;1.38;;;;;;;4.98;54.57;98698.13;5049763;28;20025;-55
2022/10/31 09:20:17;;;;;;;3.47;1.30;;;;;;;5.12;53.04;98705.03;5049713;28;20037;-57
2022/10/31 09:22:43;;;;;;;2.90;1.40;;;;;;;5.06;53.04;98702.81;5049488;28;20459;-56
2022/10/31 09:25:09;;;;;;;1.70;1.33;;;;;;;4.97;52.67;98675.22;5047245;28;20028;-58
2022/10/31 09:27:34;;;;;;;2.55;1.30;;;;;;;5.21;52.58;98706.16;5050651;28;20039;-56
2022/10/31 09:29:59;;;;;;;2.47;1.70;;;;;;;5.29;53.26;98712.53;5054569;28;20079;-56
2022/10/31 09:32:25;;;;;;;2.83;1.42;;;;;;;5.42;52.67;98709.78;5039994;28;20089;-56
2022/10/31 09:34:50;;;;;;;2.83;1.15;;;;;;;5.32;53.11;98724.72;5053147;28;20029;-56
2022/10/31 09:37:16;;;;;;;3.13;1.30;;;;;;;5.29;52.92;98728.44;5053784;28;20029;-57
2022/10/31 09:39:41;;;;;;;5.18;1.20;;;;;;;5.37;53.27;98730.53;5053900;28;20033;-67
2022/10/31 09:42:16;;;;;;;2.70;1.33;;;;;;;5.58;53.54;98728.03;5053364;28;20060;-70
2022/10/31 09:45:00;;;;;;;4.55;1.58;;;;;;;6.04;52.93;98744.03;5050071;28;20421;-67
2022/10/31 09:47:38;;;;;;;3.65;1.25;;;;;;;6.11;52.15;98742.56;5050374;28;20042;-70
2022/10/31 09:50:06;;;;;;;2.78;1.27;;;;;;;6.08;51.50;98756.09;5036686;28;20071;-72
2022/10/31 09:52:36;;;;;;;1.13;0.70;;;;;;;5.70;52.22;98723.59;5052656;28;20424;-68
2022/10/31 09:55:05;;;;;;;1.00;0.70;;;;;;;5.74;52.75;98753.38;5074408;28;20124;-68
2022/10/31 09:57:34;;;;;;;1.52;0.98;;;;;;;5.76;53.07;98764.72;5056378;28;20032;-68
2022/10/31 10:00:01;;;;;;;2.33;1.00;;;;;;;5.87;52.67;98775.38;5056500;28;20032;-67
2022/10/31 10:02:30;;;;;;;1.63;0.98;;;;;;;6.03;52.71;98774.22;5055804;28;20120;-68
2022/10/31 10:05:11;;;;;;;3.25;1.40;;;;;;;6.13;53.56;98800.88;5072888;28;20068;-68
2022/10/31 10:08:03;;;;;;;6.05;1.63;;;;;;;5.95;53.78;98787.22;5072558;28;20036;-67
2022/10/31 10:11:02;;;;;;;2.70;1.35;;;;;;;5.88;54.82;98830.19;5033670;28;20511;-68
2022/10/31 10:13:59;;;;;;;2.45;1.17;;;;;;;5.68;55.36;98812.28;5016974;28;20183;-68
2022/10/31 10:17:01;;;;;;;1.90;1.00;;;;;;;6.06;55.04;98826.25;5033604;28;20114;-69
2022/10/31 10:19:48;;;;;;;1.67;0.80;;;;;;;6.34;54.76;98829.41;5033354;28;20486;-69
2022/10/31 10:22:42;;;;;;;1.40;0.70;;;;;;;6.36;54.45;98823.00;5016742;28;20033;-71
2022/10/31 10:25:15;;;;;;;1.00;0.75;;;;;;;6.28;53.58;98833.41;5034487;28;20083;-69
2022/10/31 10:28:02;;;;;;;1.45;0.77;;;;;;;5.96;54.61;98815.47;5053813;28;20053;-70
2022/10/31 10:30:42;;;;;;;1.75;0.90;;;;;;;6.01;55.50;98850.53;5052460;28;20043;-67
2022/10/31 10:33:12;;;;;;;1.65;0.82;;;;;;;6.00;55.79;98823.09;5052690;28;20452;-69
2022/10/31 10:35:58;;;;;;;1.30;0.82;;;;;;;6.16;55.05;98849.34;5069142;28;20108;-68
2022/10/31 10:38:36;;;;;;;1.02;0.60;;;;;;;6.18;53.89;98842.09;5044043;28;20033;-69
2022/10/31 10:41:09;;;;;;;0.65;0.50;;;;;;;6.20;53.69;98849.09;5034277;28;20487;-70
2022/10/31 10:43:39;;;;;;;0.70;0.50;;;;;;;6.18;53.35;98841.25;5051551;28;20114;-74
2022/10/31 10:48:59;;;;;;;1.60;0.70;;;;;;;6.23;52.83;98855.03;5052872;28;20028;-69
2022/10/31 10:51:39;;;;;;;1.70;0.88;;;;;;;5.89;53.70;98794.69;5051764;28;20032;-69
2022/10/31 10:54:20;;;;;;;1.98;1.17;;;;;;;6.30;53.57;98839.47;5042474;28;20115;-72
2022/10/31 10:56:55;;;;;;;2.30;1.30;;;;;;;6.20;53.50;98849.97;5072380;28;20067;-68
2022/10/31 10:59:22;;;;;;;2.72;0.95;;;;;;;6.18;53.28;98842.09;5072856;28;20032;-69
2022/10/31 11:01:51;;;;;;;1.80;1.02;;;;;;;6.15;53.39;98847.66;5055998;28;20028;-70
2022/10/31 11:04:28;;;;;;;2.55;1.40;;;;;;;6.17;54.34;98843.06;5047854;28;20047;-65
2022/10/31 11:07:01;;;;;;;2.45;1.17;;;;;;;6.05;54.25;98830.75;5053076;28;20053;-66
2022/10/31 11:09:27;;;;;;;0.82;0.63;;;;;;;5.81;53.83;98796.25;5059925;28;20024;-64
2022/10/31 11:11:54;;;;;;;1.98;1.10;;;;;;;5.80;54.15;98842.38;5060796;28;20124;-63
2022/10/31 11:14:20;;;;;;;1.05;0.60;;;;;;;5.65;54.67;98839.09;5050029;28;20035;-62
2022/10/31 11:16:51;;;;;;;2.33;0.50;;;;;;;5.47;54.98;98850.13;5052084;28;20048;-64
2022/10/31 11:19:21;;;;;;;0.60;0.60;;;;;;;5.21;55.47;98826.38;5052406;28;20528;-65
2022/10/31 11:21:47;;;;;;;1.02;0.68;;;;;;;5.25;55.76;98869.47;5053011;28;20036;-57
2022/10/31 11:24:14;;;;;;;1.70;0.70;;;;;;;5.23;55.57;98872.22;5040944;28;20029;-60
2022/10/31 11:26:43;;;;;;;1.60;0.88;;;;;;;5.15;56.10;98864.84;5043393;28;20025;-59
2022/10/31 11:29:19;;;;;;;1.20;0.55;;;;;;;5.14;56.17;98870.28;5052101;28;20036;-60
2022/10/31 11:31:47;;;;;;;1.17;0.80;;;;;;;5.10;56.08;98866.16;5050966;28;20146;-59
2022/10/31 11:34:45;;;;;;;1.35;0.68;;;;;;;5.17;56.30;98867.38;5051144;28;20032;-59
2022/10/31 11:37:17;;;;;;;1.50;0.70;;;;;;;5.08;56.32;98876.03;5038234;28;20041;-61
2022/10/31 11:39:53;;;;;;;4.07;0.70;;;;;;;4.98;56.07;98879.34;5052420;28;20036;-62
2022/10/31 11:42:22;;;;;;;0.90;0.60;;;;;;;4.88;56.68;98865.06;5050067;28;20076;-61
2022/10/31 11:44:49;;;;;;;2.78;0.80;;;;;;;4.67;56.81;98880.69;5050659;28;20029;-61
2022/10/31 11:47:17;;;;;;;0.50;0.40;;;;;;;4.30;56.82;98820.53;5049853;28;20411;-59
2022/10/31 11:49:49;;;;;;;1.23;0.60;;;;;;;4.63;57.67;98868.63;5049117;28;20045;-57
2022/10/31 11:52:21;;;;;;;5.57;0.73;;;;;;;4.72;56.94;98887.38;5046783;28;20494;-59
2022/10/31 11:54:54;;;;;;;0.73;0.65;;;;;;;4.68;56.88;98899.16;5053354;28;20037;-53
2022/10/31 11:57:33;;;;;;;2.67;0.68;;;;;;;4.60;57.11;98890.91;5049399;28;20124;-60